hero-logo

Top 15 Knowers of KMB Kimberly-Clark Corp - 2017-07-21

Rank Fund Result (K)
1 Bahl Gaynor Inc $6,692
2 Jane Street Group Llc $5,633
3 Wbi Investments Inc $3,464
4 Ahl Partners Llp $1,617
5 Cornerstone Capital Management Holdings Llc $1,326
6 Strategic Wealth Advisors Group Llc $1,265
7 A R T Advisors Llc $849
8 Paloma Partners Management Co $757
9 Squarepoint Ops Llc $668
10 Northwestern Mutual Investment Management Company Llc $539
11 Vantage Investment Partners Llc $479
12 Aperio Group Llc $414
13 Blair William Co Il $404
14 Glg Llc $349
15 Argi Investment Services Llc $306
Price Chart and News From Google Finance for KMB Kimberly-Clark Corp
Owner Date Shares Change Price Change Result (K)
Acrospire Investment Management Llc 2017-03-31 500 $17.51 $8
Advantage Investment Management Llc 2017-03-31 -4 $17.51 $0
Advisors Management Group Inc Adv 2017-03-31 0 $17.51 $0
Ae Wealth Management Llc 2017-03-31 2,147 $17.51 $37
Afam Capital Inc 2017-03-31 237 $17.51 $4
Ahl Partners Llp 2017-03-31 92,402 $17.51 $1,617
Allsquare Wealth Management Llc 2017-03-31 215 $17.51 $3
Alpine Partners Vi Llc 2017-03-31 1,967 $17.51 $34
Amalgamated Bank 2017-03-31 -9,759 $17.51 $-170
Amf Pensionsforsakring Ab 2017-03-31 -3,287 $17.51 $-57
Ancora Advisors Llc 2017-03-31 -500 $17.51 $-8
Annex Advisory Services Llc 2017-03-31 -4,170 $17.51 $-73
Aperio Group Llc 2017-03-31 23,659 $17.51 $414
Archford Capital Strategies Llc 2017-03-31 375 $17.51 $6
Argi Investment Services Llc 2017-03-31 17,521 $17.51 $306
Arrow Financial Corp 2017-03-31 0 $17.51 $0
A R T Advisors Llc 2017-03-31 48,500 $17.51 $849
Assetmark Inc 2017-03-31 45 $17.51 $0
Athena Global Investors Llc 2017-03-31 0 $17.51 $0
Atlantic Trust Llc 2017-03-31 0 $17.51 $0
Aua Capital Management Llc 2017-03-31 0 $17.51 $0
Avalon Advisors Llc 2017-03-31 3,193 $17.51 $55
Bahl Gaynor Inc 2017-03-31 382,208 $17.51 $6,692
Balentine Llc 2017-03-31 423 $17.51 $7
Beacon Trust Co 2017-03-31 -1,445 $17.51 $-25
Beck Capital Management Llc 2017-03-31 -340 $17.51 $-5
Bell Bank 2017-03-31 -205 $17.51 $-3
Birmingham Capital Management Co Inc Al 2017-03-31 0 $17.51 $0
Blair William Co Il 2017-03-31 23,104 $17.51 $404
Bluefin Trading Llc 2017-03-31 -5,300 $17.51 $-92
Bokf Na 2017-03-31 -2,299 $17.51 $-40
Bontempo Ohly Capital Mgmt Llc 2017-03-31 -13,722 $17.51 $-240
Boston Private Wealth Llc 2017-03-31 9,982 $17.51 $174
Bowen Hanes Co Inc 2017-03-31 -250 $17.51 $-4
Bragg Financial Advisors Inc 2017-03-31 0 $17.51 $0
Bridgeworth Llc 2017-03-31 -111 $17.51 $-1
Brighton Jones Llc 2017-03-31 3,741 $17.51 $65
Broderick Brian C 2017-03-31 0 $17.51 $0
Brown Brothers Harriman Co 2017-03-31 -1,350 $17.51 $-23
B S Pension Fund Trustee Ltd Acting For The British Steel P 2017-03-31 -1,041 $17.51 $-18
B T Capital Management Dba Alpha Capital Management 2017-03-31 -18,449 $17.51 $-323
California State Teachers Retirement System 2017-03-31 -32,800 $17.51 $-574
Camden National Bank 2017-03-31 -732 $17.51 $-12
Camg Solamere Management Llc 2017-03-31 -26 $17.51 $0
Canandaigua National Bank Trust Co 2017-03-31 -175 $17.51 $-3
Capital Guardian Trust Co 2017-03-31 -1,502 $17.51 $-26
Catamount Wealth Management 2017-03-31 0 $17.51 $0
Cetera Advisor Networks Llc 2017-03-31 2,527 $17.51 $44
Cetera Advisors Llc 2017-03-31 131 $17.51 $2
Cetera Investment Advisers 2017-03-31 -2,455 $17.51 $-42
Chelsea Counsel Co 2017-03-31 50 $17.51 $0
Chilton Investment Co Llc 2017-03-31 -9,150 $17.51 $-160
Circle Wealth Management Llc 2017-03-31 1 $17.51 $0
Clear Perspective Advisors Llc 2017-03-31 -1,250 $17.51 $-21
Cognios Capital Llc 2017-03-31 -17,637 $17.51 $-308
Compagnie Lombard Odier Scma 2017-03-31 -300 $17.51 $-5
Congress Asset Management Co Ma 2017-03-31 -2,076 $17.51 $-36
Cornerstone Capital Management Holdings Llc 2017-03-31 75,745 $17.51 $1,326
Cornerstone Wealth Management Llc 2017-03-31 1,957 $17.51 $34
Covington Capital Management 2017-03-31 -15 $17.51 $0
Crawford Investment Counsel Inc 2017-03-31 -449 $17.51 $-7
Cypress Wealth Advisors Llc 2017-03-31 -31 $17.51 $0
D A Davidson Co 2017-03-31 9,481 $17.51 $166
Dana Investment Advisors Inc 2017-03-31 -8,340 $17.51 $-146
Davidson Investment Advisors 2017-03-31 -365 $17.51 $-6
Denver Investment Advisors Llc 2017-03-31 -3,101 $17.51 $-54
Df Dent Co Inc 2017-03-31 0 $17.51 $0
Dixon Hubard Feinour Brown Inc Va 2017-03-31 25 $17.51 $0
Eagle Global Advisors Llc 2017-03-31 0 $17.51 $0
Earnest Partners Llc 2017-03-31 -25,584 $17.51 $-447
Edmond De Rothschild Holding S A 2017-03-31 730 $17.51 $12
Elkhorn Investments Llc 2017-03-31 10,140 $17.51 $177
Ellington Management Group Llc 2017-03-31 -6,600 $17.51 $-115
Envestnet Asset Management Inc 2017-03-31 -31,310 $17.51 $-548
Estabrook Capital Management 2017-03-31 -7,650 $17.51 $-133
Fairfield Bush Co 2017-03-31 -50 $17.51 $0
Farmers National Bank 2017-03-31 -3,019 $17.51 $-52
Fcg Advisors Llc 2017-03-31 22 $17.51 $0
Fdx Advisors Inc 2017-03-31 -3,200 $17.51 $-56
Fieldpoint Private Advisors Inc 2017-03-31 -22,135 $17.51 $-387
Fiera Capital Corp 2017-03-31 15 $17.51 $0
First Foundation Advisors 2017-03-31 4,367 $17.51 $76
First Heartland Consultants Inc 2017-03-31 -249 $17.51 $-4
First Republic Investment Management Inc 2017-03-31 2,195 $17.51 $38
Flagship Harbor Advisors Llc 2017-03-31 -433 $17.51 $-7
Focused Wealth Management Inc 2017-03-31 1 $17.51 $0
Genesee Valley Trust Co 2017-03-31 15 $17.51 $0
Glen Harbor Capital Management Llc 2017-03-31 1,988 $17.51 $34
Glg Llc 2017-03-31 19,967 $17.51 $349
Glg Partners Lp 2017-03-31 5,000 $17.51 $87
Godshalk Welsh Capital Management Inc 2017-03-31 125 $17.51 $2
Golub Group Llc 2017-03-31 140 $17.51 $2
Gotham Asset Management Llc 2017-03-31 -178,273 $17.51 $-3,121
Gratus Capital Llc 2017-03-31 -36 $17.51 $0
Green Square Capital Llc 2017-03-31 -1,955 $17.51 $-34
Greenwich Investment Management Inc 2017-03-31 1,736 $17.51 $30
Greenwich Wealth Management Llc 2017-03-31 2,280 $17.51 $39
Gsa Capital Partners Llp 2017-03-31 -3,014 $17.51 $-52
Gsb Wealth Management Llc 2017-03-31 -2,490 $17.51 $-43
Guardian Capital Lp 2017-03-31 -1,557 $17.51 $-27
Guggenheim Capital Llc 2017-03-31 -53,520 $17.51 $-937
Hanlon Investment Management Inc 2017-03-31 -2,205 $17.51 $-38
Hanson Doremus Investment Management 2017-03-31 -10 $17.51 $0
Hbk Sorce Advisory Llc 2017-03-31 -289 $17.51 $-5
Hendley Co Inc 2017-03-31 70 $17.51 $1
Hgk Asset Management Inc 2017-03-31 -87,321 $17.51 $-1,528
Highlander Capital Management Llc 2017-03-31 0 $17.51 $0
Horizon Kinetics Llc 2017-03-31 -50 $17.51 $0
Hutchin Hill Capital Lp 2017-03-31 -3,300 $17.51 $-57
Ibex Wealth Advisors 2017-03-31 -202 $17.51 $-3
Ifp Advisors Inc 2017-03-31 -783 $17.51 $-13
Iht Wealth Management Llc 2017-03-31 31 $17.51 $0
Intact Investment Management Inc 2017-03-31 -21,300 $17.51 $-372
Interocean Capital Llc 2017-03-31 -838 $17.51 $-14
Invictus Rg 2017-03-31 -1,056 $17.51 $-18
Ironsides Asset Advisors Llc 2017-03-31 -2,550 $17.51 $-44
Israel Discount Bank Of New York 2017-03-31 0 $17.51 $0
Itau Unibanco Holding S A 2017-03-31 230 $17.51 $4
Jackson Grant Investment Advisers Inc 2017-03-31 16 $17.51 $0
Jacobs Levy Equity Management Inc 2017-03-31 -7,920 $17.51 $-138
Jaffetilchin Investment Partners Llc 2017-03-31 1,535 $17.51 $26
Jane Street Group Llc 2017-03-31 321,728 $17.51 $5,633
Jarislowsky Fraser Ltd 2017-03-31 -26,379 $17.51 $-461
Johnson Investment Counsel Inc 2017-03-31 26 $17.51 $0
Karpus Management Inc 2017-03-31 2,697 $17.51 $47
Keel Point Llc 2017-03-31 1,740 $17.51 $30
Kelly Lawrence W Associates Inc Ca 2017-03-31 0 $17.51 $0
Kentucky Retirement Systems 2017-03-31 -3,182 $17.51 $-55
Kentucky Retirement Systems Insurance Trust Fund 2017-03-31 -1,977 $17.51 $-34
Kernodle Katon Asset Management Group Llc 2017-03-31 379 $17.51 $6
Kidder Stephen W 2017-03-31 0 $17.51 $0
Kimelman Baird Llc 2017-03-31 190 $17.51 $3
Kingfisher Capital Llc 2017-03-31 -1,303 $17.51 $-22
Kovitz Investment Group Partners Llc 2017-03-31 1,550 $17.51 $27
Krilogy Financial Llc 2017-03-31 0 $17.51 $0
Ladenburg Thalmann Financial Services Inc 2017-03-31 2,582 $17.51 $45
Laurel Wealth Advisors Inc 2017-03-31 1,921 $17.51 $33
Lebenthal Asset Management Llc 2017-03-31 -11 $17.51 $0
Lee Financial Corp 2017-03-31 -60 $17.51 $-1
Level Four Advisory Services Llc 2017-03-31 1,317 $17.51 $23
Logan Capital Management Inc 2017-03-31 142 $17.51 $2
London Co Of Virginia 2017-03-31 21 $17.51 $0
Loomis Sayles Co L P 2017-03-31 0 $17.51 $0
Lowe Brockenbrough Co Inc 2017-03-31 -24 $17.51 $0
Magellan Asset Management Ltd 2017-03-31 -257 $17.51 $-4
Maple Capital Management Inc 2017-03-31 100 $17.51 $1
Marco Investment Management Llc 2017-03-31 1,850 $17.51 $32
Marietta Investment Partners Llc 2017-03-31 1,100 $17.51 $19
Mariner Wealth Advisors Llc 2017-03-31 273 $17.51 $4
Mason Street Advisors Llc 2017-03-31 168 $17.51 $2
Meadow Creek Investment Management Llc 2017-03-31 1,562 $17.51 $27
Miles Capital Inc 2017-03-31 -73 $17.51 $-1
Moloney Securities Asset Management Llc 2017-03-31 -147 $17.51 $-2
Monroe Bank Trust Mi 2017-03-31 -4 $17.51 $0
Montecito Bank Trust 2017-03-31 0 $17.51 $0
Mv Capital Management Inc 2017-03-31 -135 $17.51 $-2
National Asset Management Inc 2017-03-31 133 $17.51 $2
New York Life Trust Co 2017-03-31 -19 $17.51 $0
Northern Oak Wealth Management Inc 2017-03-31 -34,112 $17.51 $-597
Northwestern Mutual Investment Management Company Llc 2017-03-31 30,787 $17.51 $539
Northwestern Mutual Wealth Management Co 2017-03-31 -1,335 $17.51 $-23
Oberweis Asset Management Inc 2017-03-31 2 $17.51 $0
One Capital Management Llc 2017-03-31 -899 $17.51 $-15
Optimum Investment Advisors 2017-03-31 0 $17.51 $0
Orleans Capital Management Corp La 2017-03-31 1,025 $17.51 $17
Page Arthur B 2017-03-31 1,591 $17.51 $27
Pagnatokarp Partners Llc 2017-03-31 2,130 $17.51 $37
Paloma Partners Management Co 2017-03-31 43,248 $17.51 $757
Patriot Financial Group Insurance Agency Llc 2017-03-31 -14 $17.51 $0
Piedmont Investment Advisors Llc 2017-03-31 650 $17.51 $11
Pinkerton Retirement Specialists Llc 2017-03-31 132 $17.51 $2
Pittenger Anderson Inc 2017-03-31 -680 $17.51 $-11
Plancorp Llc 2017-03-31 -1 $17.51 $0
Proficio Capital Partners Llc 2017-03-31 230 $17.51 $4
Public Employees Retirement System Of Ohio 2017-03-31 7,700 $17.51 $134
Puzo Michael J 2017-03-31 1,580 $17.51 $27
Raymond James Associates 2017-03-31 -9,035 $17.51 $-158
Rench Wealth Management Inc 2017-03-31 -365 $17.51 $-6
Reynders Mcveigh Capital Management Llc 2017-03-31 -41 $17.51 $0
Riverhead Capital Management Llc 2017-03-31 1,854 $17.51 $32
River Wealth Advisors Llc 2017-03-31 -62 $17.51 $-1
Rocky Mountain Advisers Llc 2017-03-31 0 $17.51 $0
Rodgers Brothers Inc 2017-03-31 103 $17.51 $1
Rothschild Asset Management Inc 2017-03-31 -1,270 $17.51 $-22
Salem Investment Counselors Inc 2017-03-31 -34 $17.51 $0
Saturna Capital Corp 2017-03-31 -25,000 $17.51 $-437
Schnieders Capital Management Llc 2017-03-31 -246 $17.51 $-4
Schonfeld Strategic Advisors Llc 2017-03-31 2,351 $17.51 $41
Scotia Capital Inc 2017-03-31 -6,927 $17.51 $-121
Segall Bryant Hamill Llc 2017-03-31 -576 $17.51 $-10
Seven Eight Capital Lp 2017-03-31 2,400 $17.51 $42
Signaturefd Llc 2017-03-31 192 $17.51 $3
Silvercrest Asset Management Group Llc 2017-03-31 999 $17.51 $17
Somerville Kurt F 2017-03-31 0 $17.51 $0
Sowell Financial Services Llc 2017-03-31 2,212 $17.51 $38
Squarepoint Ops Llc 2017-03-31 38,179 $17.51 $668
Stadion Money Management Llc 2017-03-31 0 $17.51 $0
Steinberg Global Asset Management 2017-03-31 3,479 $17.51 $60
Sterling Capital Management Llc 2017-03-31 -59 $17.51 $-1
Sterling Investment Advisors Ltd 2017-03-31 400 $17.51 $7
Stifel Financial Corp 2017-03-31 481 $17.51 $8
Stonebridge Capital Advisors Llc 2017-03-31 -13 $17.51 $0
Strategic Wealth Advisors Group Llc 2017-03-31 72,276 $17.51 $1,265
Sva Plumb Wealth Management Llc 2017-03-31 -137 $17.51 $-2
Taurus Asset Management Llc 2017-03-31 1,716 $17.51 $30
Tortoise Investment Management Llc 2017-03-31 34 $17.51 $0
Two Sigma Securities Llc 2017-03-31 7,612 $17.51 $133
United Capital Financial Advisers Llc 2017-03-31 -30,262 $17.51 $-529
Valueinvest Asset Management S A 2017-03-31 -40,600 $17.51 $-710
Vantage Investment Partners Llc 2017-03-31 27,370 $17.51 $479
Veritable L P 2017-03-31 -199 $17.51 $-3
Verition Fund Management Llc 2017-03-31 7,596 $17.51 $133
Walleye Trading Llc 2017-03-31 -24,402 $17.51 $-427
Waters Parkerson Co Llc 2017-03-31 -25 $17.51 $0
Wayne Hummer Investments L L C 2017-03-31 7,331 $17.51 $128
Wbi Investments Inc 2017-03-31 197,875 $17.51 $3,464
Weatherly Asset Management L P 2017-03-31 1,055 $17.51 $18
Webster Bank N A 2017-03-31 0 $17.51 $0
Westside Investment Management Inc 2017-03-31 0 $17.51 $0
Westwood Holdings Group Inc 2017-03-31 200 $17.51 $3
Willis Investment Counsel 2017-03-31 5,400 $17.51 $94
Wimmer Associates 1 Llc 2017-03-31 -412 $17.51 $-7
Yorkbridge Wealth Partners Llc 2017-03-31 -83 $17.51 $-1